Terminal Aerodrome Forecast
Issued by NWS Sioux Falls, SD

Home | Current Version | Previous Version | Text Only | Print | Product List | Glossary Off
Versions: 1 2 3 4 5 6 7 8 9 10 11 12 13 14 15

642
FTUS43 KFSD 222328
TAFHON
TAF
KHON 222328Z 2300/2324 10010G18KT P6SM SCT120 BKN200
     FM230200 14006KT P6SM BKN200
     FM230300 10008KT P6SM SCT030 BKN150
     FM230800 12008KT P6SM SCT025 BKN120
     FM231200 13007KT P6SM BKN120
     FM231600 16010KT P6SM SCT110 BKN200
     FM232100 29015G21KT P6SM FEW050 SCT120=

USA.gov is the U.S. government's official web portal to all federal, state and local government web resources and services.